In Rescue
 
Open Full Screen Window  High Contrast Mode
Wind Gusting 00 knots
03
March 01, 2024 4:41 PM EST
Weather Information
Wind Direction
  160 °
Wind Speed
  03 kt (3 mph)
Wind Gust
  00 kt (0 mph)
Altimeter
30.24 in
Visibility
10 SM
Temperature
04° C
39° F
Dewpoint
-12° C
10° F
Humidity
30%
1hr Rain Fall
00.01 in.
24hr Rain Fall
00.01 in.
Sky Condition
Overcast @ 4,600 ft
Scattered @ 3,600 ft
VFR

METAR KMRT 012141Z AUTO 16003KT 10SM SCT036 OVC046 04/M12 A3024 RMK AO2 P0001 T00351118

FAA Disclaimer: The data displayed is for advisory purposes only and is not to be used for flight planning or operations.